sensor_id;sensor_type;location;lat;lon;timestamp;P1;durP1;ratioP1;P2;durP2;ratioP2
27722;SDS011;15123;-37.794;175.246;2023-05-29T00:01:38;4.90;;;0.90;;
27722;SDS011;15123;-37.794;175.246;2023-05-29T00:05:03;6.30;;;0.90;;
27722;SDS011;15123;-37.794;175.246;2023-05-29T00:08:22;5.18;;;1.10;;
27722;SDS011;15123;-37.794;175.246;2023-05-29T00:11:46;5.97;;;1.13;;
27722;SDS011;15123;-37.794;175.246;2023-05-29T00:15:10;6.22;;;1.00;;
27722;SDS011;15123;-37.794;175.246;2023-05-29T00:18:34;4.50;;;1.00;;
27722;SDS011;15123;-37.794;175.246;2023-05-29T00:22:01;4.43;;;0.90;;
27722;SDS011;15123;-37.794;175.246;2023-05-29T00:25:26;5.93;;;0.95;;
27722;SDS011;15123;-37.794;175.246;2023-05-29T00:28:50;4.03;;;0.80;;
27722;SDS011;15123;-37.794;175.246;2023-05-29T00:32:14;4.35;;;0.90;;
27722;SDS011;15123;-37.794;175.246;2023-05-29T00:35:38;4.47;;;1.10;;
27722;SDS011;15123;-37.794;175.246;2023-05-29T00:39:02;3.58;;;0.70;;
27722;SDS011;15123;-37.794;175.246;2023-05-29T00:42:26;3.53;;;0.55;;
27722;SDS011;15123;-37.794;175.246;2023-05-29T00:45:51;3.17;;;0.70;;
27722;SDS011;15123;-37.794;175.246;2023-05-29T00:49:16;3.42;;;0.70;;
27722;SDS011;15123;-37.794;175.246;2023-05-29T00:52:40;6.45;;;0.95;;
27722;SDS011;15123;-37.794;175.246;2023-05-29T00:55:59;2.95;;;0.50;;
27722;SDS011;15123;-37.794;175.246;2023-05-29T00:59:17;4.53;;;0.80;;
27722;SDS011;15123;-37.794;175.246;2023-05-29T01:02:42;3.85;;;0.70;;
27722;SDS011;15123;-37.794;175.246;2023-05-29T01:06:08;3.80;;;0.57;;
27722;SDS011;15123;-37.794;175.246;2023-05-29T01:09:32;4.90;;;0.60;;
27722;SDS011;15123;-37.794;175.246;2023-05-29T01:13:38;2.72;;;0.50;;
27722;SDS011;15123;-37.794;175.246;2023-05-29T01:16:48;4.90;;;0.70;;
27722;SDS011;15123;-37.794;175.246;2023-05-29T01:20:36;7.00;;;0.70;;
27722;SDS011;15123;-37.794;175.246;2023-05-29T01:24:45;4.78;;;0.70;;
27722;SDS011;15123;-37.794;175.246;2023-05-29T01:28:11;5.20;;;0.90;;
27722;SDS011;15123;-37.794;175.246;2023-05-29T01:31:35;5.35;;;0.75;;
27722;SDS011;15123;-37.794;175.246;2023-05-29T01:35:00;5.68;;;0.80;;
27722;SDS011;15123;-37.794;175.246;2023-05-29T01:38:28;4.82;;;0.85;;
27722;SDS011;15123;-37.794;175.246;2023-05-29T01:41:52;6.10;;;0.70;;
27722;SDS011;15123;-37.794;175.246;2023-05-29T01:45:16;4.53;;;0.88;;
27722;SDS011;15123;-37.794;175.246;2023-05-29T01:48:40;4.75;;;0.70;;
27722;SDS011;15123;-37.794;175.246;2023-05-29T01:52:05;2.88;;;0.50;;
27722;SDS011;15123;-37.794;175.246;2023-05-29T01:55:29;3.90;;;0.70;;
27722;SDS011;15123;-37.794;175.246;2023-05-29T01:58:54;5.43;;;0.80;;
27722;SDS011;15123;-37.794;175.246;2023-05-29T02:02:21;4.35;;;0.70;;
27722;SDS011;15123;-37.794;175.246;2023-05-29T02:05:45;4.72;;;0.70;;
27722;SDS011;15123;-37.794;175.246;2023-05-29T02:09:09;5.88;;;0.70;;
27722;SDS011;15123;-37.794;175.246;2023-05-29T02:12:33;4.20;;;0.73;;
27722;SDS011;15123;-37.794;175.246;2023-05-29T02:15:58;4.00;;;0.70;;
27722;SDS011;15123;-37.794;175.246;2023-05-29T02:19:23;3.95;;;0.60;;
27722;SDS011;15123;-37.794;175.246;2023-05-29T02:22:47;4.72;;;0.80;;
27722;SDS011;15123;-37.794;175.246;2023-05-29T02:26:11;3.05;;;0.60;;
27722;SDS011;15123;-37.794;175.246;2023-05-29T02:29:35;4.53;;;0.65;;
27722;SDS011;15123;-37.794;175.246;2023-05-29T02:32:59;5.15;;;0.70;;
27722;SDS011;15123;-37.794;175.246;2023-05-29T02:36:24;5.68;;;0.85;;
27722;SDS011;15123;-37.794;175.246;2023-05-29T02:39:48;6.57;;;0.85;;
27722;SDS011;15123;-37.794;175.246;2023-05-29T02:43:13;5.70;;;0.90;;
27722;SDS011;15123;-37.794;175.246;2023-05-29T02:46:38;7.03;;;0.90;;
27722;SDS011;15123;-37.794;175.246;2023-05-29T02:50:02;6.45;;;0.90;;
27722;SDS011;15123;-37.794;175.246;2023-05-29T02:53:27;6.05;;;0.95;;
27722;SDS011;15123;-37.794;175.246;2023-05-29T02:56:53;3.70;;;0.80;;
27722;SDS011;15123;-37.794;175.246;2023-05-29T03:00:21;6.80;;;1.40;;
27722;SDS011;15123;-37.794;175.246;2023-05-29T03:03:46;5.97;;;0.90;;
27722;SDS011;15123;-37.794;175.246;2023-05-29T03:07:12;7.85;;;1.00;;
27722;SDS011;15123;-37.794;175.246;2023-05-29T03:10:36;5.88;;;0.80;;
27722;SDS011;15123;-37.794;175.246;2023-05-29T03:14:02;6.97;;;1.63;;
27722;SDS011;15123;-37.794;175.246;2023-05-29T03:17:26;6.68;;;1.20;;
27722;SDS011;15123;-37.794;175.246;2023-05-29T03:20:58;8.30;;;1.17;;
27722;SDS011;15123;-37.794;175.246;2023-05-29T03:24:22;7.20;;;1.10;;
27722;SDS011;15123;-37.794;175.246;2023-05-29T03:27:47;6.78;;;1.13;;
27722;SDS011;15123;-37.794;175.246;2023-05-29T03:31:13;7.75;;;1.30;;
27722;SDS011;15123;-37.794;175.246;2023-05-29T03:34:37;7.45;;;1.10;;
27722;SDS011;15123;-37.794;175.246;2023-05-29T03:38:02;5.88;;;1.20;;
27722;SDS011;15123;-37.794;175.246;2023-05-29T03:41:30;5.30;;;0.82;;
27722;SDS011;15123;-37.794;175.246;2023-05-29T03:44:54;8.10;;;1.08;;
27722;SDS011;15123;-37.794;175.246;2023-05-29T03:48:18;7.32;;;1.23;;
27722;SDS011;15123;-37.794;175.246;2023-05-29T03:51:42;7.43;;;1.40;;
27722;SDS011;15123;-37.794;175.246;2023-05-29T03:55:08;10.68;;;1.20;;
27722;SDS011;15123;-37.794;175.246;2023-05-29T03:58:32;7.20;;;1.00;;
27722;SDS011;15123;-37.794;175.246;2023-05-29T04:01:56;6.32;;;1.10;;
27722;SDS011;15123;-37.794;175.246;2023-05-29T04:05:21;7.18;;;1.00;;
27722;SDS011;15123;-37.794;175.246;2023-05-29T04:08:46;8.40;;;1.25;;
27722;SDS011;15123;-37.794;175.246;2023-05-29T04:12:10;9.40;;;1.63;;
27722;SDS011;15123;-37.794;175.246;2023-05-29T04:15:34;7.72;;;1.05;;
27722;SDS011;15123;-37.794;175.246;2023-05-29T04:18:58;7.13;;;1.20;;
27722;SDS011;15123;-37.794;175.246;2023-05-29T04:22:22;10.10;;;1.63;;
27722;SDS011;15123;-37.794;175.246;2023-05-29T04:25:47;8.35;;;1.45;;
27722;SDS011;15123;-37.794;175.246;2023-05-29T04:29:12;8.05;;;1.50;;
27722;SDS011;15123;-37.794;175.246;2023-05-29T04:32:37;9.93;;;1.48;;
27722;SDS011;15123;-37.794;175.246;2023-05-29T04:36:03;10.25;;;1.70;;
27722;SDS011;15123;-37.794;175.246;2023-05-29T04:39:38;11.18;;;1.88;;
27722;SDS011;15123;-37.794;175.246;2023-05-29T04:43:02;11.90;;;2.08;;
27722;SDS011;15123;-37.794;175.246;2023-05-29T04:46:44;11.65;;;2.00;;
27722;SDS011;15123;-37.794;175.246;2023-05-29T04:50:10;9.23;;;1.50;;
27722;SDS011;15123;-37.794;175.246;2023-05-29T04:53:40;9.23;;;1.60;;
27722;SDS011;15123;-37.794;175.246;2023-05-29T04:57:04;14.18;;;1.58;;
27722;SDS011;15123;-37.794;175.246;2023-05-29T05:00:28;11.85;;;2.03;;
27722;SDS011;15123;-37.794;175.246;2023-05-29T05:03:46;9.23;;;1.38;;
27722;SDS011;15123;-37.794;175.246;2023-05-29T05:07:04;10.60;;;1.50;;
27722;SDS011;15123;-37.794;175.246;2023-05-29T05:10:29;9.90;;;1.80;;
27722;SDS011;15123;-37.794;175.246;2023-05-29T05:13:54;10.77;;;1.90;;
27722;SDS011;15123;-37.794;175.246;2023-05-29T05:17:17;12.20;;;2.00;;
27722;SDS011;15123;-37.794;175.246;2023-05-29T05:20:41;9.98;;;2.33;;
27722;SDS011;15123;-37.794;175.246;2023-05-29T05:24:08;9.88;;;2.60;;
27722;SDS011;15123;-37.794;175.246;2023-05-29T05:27:33;18.30;;;6.25;;
27722;SDS011;15123;-37.794;175.246;2023-05-29T05:30:59;15.73;;;4.47;;
27722;SDS011;15123;-37.794;175.246;2023-05-29T05:34:23;15.88;;;4.43;;
27722;SDS011;15123;-37.794;175.246;2023-05-29T05:37:47;12.20;;;3.45;;
27722;SDS011;15123;-37.794;175.246;2023-05-29T05:41:14;13.52;;;3.20;;
27722;SDS011;15123;-37.794;175.246;2023-05-29T05:44:39;13.52;;;3.03;;
27722;SDS011;15123;-37.794;175.246;2023-05-29T05:48:03;12.68;;;2.88;;
27722;SDS011;15123;-37.794;175.246;2023-05-29T05:51:27;15.35;;;3.03;;
27722;SDS011;15123;-37.794;175.246;2023-05-29T05:54:52;16.75;;;3.22;;
27722;SDS011;15123;-37.794;175.246;2023-05-29T05:58:17;15.90;;;2.60;;
27722;SDS011;15123;-37.794;175.246;2023-05-29T06:01:41;14.80;;;3.55;;
27722;SDS011;15123;-37.794;175.246;2023-05-29T06:04:59;18.13;;;6.65;;
27722;SDS011;15123;-37.794;175.246;2023-05-29T06:08:16;18.90;;;7.95;;
27722;SDS011;15123;-37.794;175.246;2023-05-29T06:11:40;40.63;;;14.90;;
27722;SDS011;15123;-37.794;175.246;2023-05-29T06:15:05;26.70;;;7.45;;
27722;SDS011;15123;-37.794;175.246;2023-05-29T06:18:30;22.33;;;6.90;;
27722;SDS011;15123;-37.794;175.246;2023-05-29T06:21:54;19.73;;;7.00;;
27722;SDS011;15123;-37.794;175.246;2023-05-29T06:25:19;20.77;;;7.70;;
27722;SDS011;15123;-37.794;175.246;2023-05-29T06:28:50;22.08;;;7.75;;
27722;SDS011;15123;-37.794;175.246;2023-05-29T06:32:14;22.63;;;6.25;;
27722;SDS011;15123;-37.794;175.246;2023-05-29T06:35:40;28.42;;;8.45;;
27722;SDS011;15123;-37.794;175.246;2023-05-29T06:39:04;22.63;;;5.43;;
27722;SDS011;15123;-37.794;175.246;2023-05-29T06:42:28;22.05;;;5.90;;
27722;SDS011;15123;-37.794;175.246;2023-05-29T06:46:06;21.85;;;4.70;;
27722;SDS011;15123;-37.794;175.246;2023-05-29T06:49:31;20.33;;;5.20;;
27722;SDS011;15123;-37.794;175.246;2023-05-29T06:52:56;31.63;;;8.00;;
27722;SDS011;15123;-37.794;175.246;2023-05-29T06:56:24;34.35;;;10.23;;
27722;SDS011;15123;-37.794;175.246;2023-05-29T06:59:48;25.63;;;7.05;;
27722;SDS011;15123;-37.794;175.246;2023-05-29T07:03:19;28.63;;;8.27;;
27722;SDS011;15123;-37.794;175.246;2023-05-29T07:06:44;20.20;;;5.90;;
27722;SDS011;15123;-37.794;175.246;2023-05-29T07:10:10;20.13;;;5.78;;
27722;SDS011;15123;-37.794;175.246;2023-05-29T07:13:35;24.38;;;5.47;;
27722;SDS011;15123;-37.794;175.246;2023-05-29T07:17:00;15.80;;;2.58;;
27722;SDS011;15123;-37.794;175.246;2023-05-29T07:20:36;15.43;;;3.70;;
27722;SDS011;15123;-37.794;175.246;2023-05-29T07:24:01;22.98;;;8.43;;
27722;SDS011;15123;-37.794;175.246;2023-05-29T07:27:25;29.73;;;10.93;;
27722;SDS011;15123;-37.794;175.246;2023-05-29T07:30:52;23.50;;;9.02;;
27722;SDS011;15123;-37.794;175.246;2023-05-29T07:34:17;20.88;;;8.48;;
27722;SDS011;15123;-37.794;175.246;2023-05-29T07:37:41;22.92;;;7.60;;
27722;SDS011;15123;-37.794;175.246;2023-05-29T07:41:08;18.88;;;6.60;;
27722;SDS011;15123;-37.794;175.246;2023-05-29T07:44:34;22.95;;;5.45;;
27722;SDS011;15123;-37.794;175.246;2023-05-29T07:47:58;18.05;;;4.72;;
27722;SDS011;15123;-37.794;175.246;2023-05-29T07:51:23;18.58;;;3.85;;
27722;SDS011;15123;-37.794;175.246;2023-05-29T07:54:49;18.30;;;3.15;;
27722;SDS011;15123;-37.794;175.246;2023-05-29T07:58:13;12.75;;;2.58;;
27722;SDS011;15123;-37.794;175.246;2023-05-29T08:01:38;17.70;;;3.33;;
27722;SDS011;15123;-37.794;175.246;2023-05-29T08:05:35;16.10;;;2.72;;
27722;SDS011;15123;-37.794;175.246;2023-05-29T08:08:41;15.55;;;2.80;;
27722;SDS011;15123;-37.794;175.246;2023-05-29T08:12:04;17.75;;;2.55;;
27722;SDS011;15123;-37.794;175.246;2023-05-29T08:15:30;13.70;;;2.90;;
27722;SDS011;15123;-37.794;175.246;2023-05-29T08:18:54;21.40;;;6.35;;
27722;SDS011;15123;-37.794;175.246;2023-05-29T08:22:20;18.25;;;5.10;;
27722;SDS011;15123;-37.794;175.246;2023-05-29T08:25:50;18.45;;;4.50;;
27722;SDS011;15123;-37.794;175.246;2023-05-29T08:29:14;15.20;;;3.60;;
27722;SDS011;15123;-37.794;175.246;2023-05-29T08:32:39;17.33;;;4.43;;
27722;SDS011;15123;-37.794;175.246;2023-05-29T08:36:03;18.80;;;3.92;;
27722;SDS011;15123;-37.794;175.246;2023-05-29T08:39:26;19.27;;;4.78;;
27722;SDS011;15123;-37.794;175.246;2023-05-29T08:43:02;24.38;;;9.07;;
27722;SDS011;15123;-37.794;175.246;2023-05-29T08:46:31;15.52;;;5.75;;
27722;SDS011;15123;-37.794;175.246;2023-05-29T08:49:55;15.70;;;4.18;;
27722;SDS011;15123;-37.794;175.246;2023-05-29T08:53:21;14.43;;;3.65;;
27722;SDS011;15123;-37.794;175.246;2023-05-29T08:56:47;14.05;;;3.30;;
27722;SDS011;15123;-37.794;175.246;2023-05-29T09:00:14;14.60;;;3.15;;
27722;SDS011;15123;-37.794;175.246;2023-05-29T09:03:44;18.00;;;3.70;;
27722;SDS011;15123;-37.794;175.246;2023-05-29T09:07:09;12.65;;;2.95;;
27722;SDS011;15123;-37.794;175.246;2023-05-29T09:10:35;16.13;;;2.88;;
27722;SDS011;15123;-37.794;175.246;2023-05-29T09:13:59;16.92;;;2.88;;
27722;SDS011;15123;-37.794;175.246;2023-05-29T09:17:24;13.20;;;2.30;;
27722;SDS011;15123;-37.794;175.246;2023-05-29T09:20:56;13.80;;;2.75;;
27722;SDS011;15123;-37.794;175.246;2023-05-29T09:24:20;14.27;;;2.75;;
27722;SDS011;15123;-37.794;175.246;2023-05-29T09:27:44;15.20;;;3.70;;
27722;SDS011;15123;-37.794;175.246;2023-05-29T09:31:13;9.93;;;2.72;;
27722;SDS011;15123;-37.794;175.246;2023-05-29T09:34:37;12.73;;;2.63;;
27722;SDS011;15123;-37.794;175.246;2023-05-29T09:38:02;14.02;;;3.22;;
27722;SDS011;15123;-37.794;175.246;2023-05-29T09:41:29;15.98;;;3.40;;
27722;SDS011;15123;-37.794;175.246;2023-05-29T09:44:52;14.68;;;3.50;;
27722;SDS011;15123;-37.794;175.246;2023-05-29T09:48:23;13.95;;;3.53;;
27722;SDS011;15123;-37.794;175.246;2023-05-29T09:51:47;16.50;;;3.35;;
27722;SDS011;15123;-37.794;175.246;2023-05-29T09:55:11;21.30;;;3.65;;
27722;SDS011;15123;-37.794;175.246;2023-05-29T09:58:38;21.33;;;3.47;;
27722;SDS011;15123;-37.794;175.246;2023-05-29T10:02:04;16.38;;;2.78;;
27722;SDS011;15123;-37.794;175.246;2023-05-29T10:05:30;14.40;;;2.72;;
27722;SDS011;15123;-37.794;175.246;2023-05-29T10:08:54;14.07;;;2.72;;
27722;SDS011;15123;-37.794;175.246;2023-05-29T10:12:19;19.98;;;3.33;;
27722;SDS011;15123;-37.794;175.246;2023-05-29T10:15:44;13.48;;;2.50;;
27722;SDS011;15123;-37.794;175.246;2023-05-29T10:19:12;13.40;;;2.20;;
27722;SDS011;15123;-37.794;175.246;2023-05-29T10:22:39;14.15;;;2.78;;
27722;SDS011;15123;-37.794;175.246;2023-05-29T10:26:07;16.35;;;3.10;;
27722;SDS011;15123;-37.794;175.246;2023-05-29T10:29:35;20.00;;;3.63;;
27722;SDS011;15123;-37.794;175.246;2023-05-29T10:37:01;18.02;;;4.35;;
27722;SDS011;15123;-37.794;175.246;2023-05-29T10:40:30;18.30;;;4.22;;
27722;SDS011;15123;-37.794;175.246;2023-05-29T10:43:55;15.32;;;3.55;;
27722;SDS011;15123;-37.794;175.246;2023-05-29T10:47:24;16.30;;;3.85;;
27722;SDS011;15123;-37.794;175.246;2023-05-29T10:50:48;16.88;;;3.35;;
27722;SDS011;15123;-37.794;175.246;2023-05-29T10:54:12;14.40;;;3.60;;
27722;SDS011;15123;-37.794;175.246;2023-05-29T10:57:36;15.40;;;2.92;;
27722;SDS011;15123;-37.794;175.246;2023-05-29T11:01:09;15.25;;;3.13;;
27722;SDS011;15123;-37.794;175.246;2023-05-29T11:04:33;16.48;;;3.67;;
27722;SDS011;15123;-37.794;175.246;2023-05-29T11:07:59;15.38;;;3.10;;
27722;SDS011;15123;-37.794;175.246;2023-05-29T11:14:54;16.55;;;2.80;;
27722;SDS011;15123;-37.794;175.246;2023-05-29T11:25:00;14.35;;;2.95;;
27722;SDS011;15123;-37.794;175.246;2023-05-29T11:28:23;13.27;;;2.97;;
27722;SDS011;15123;-37.794;175.246;2023-05-29T11:31:49;15.52;;;2.92;;
27722;SDS011;15123;-37.794;175.246;2023-05-29T11:35:31;13.60;;;2.53;;
27722;SDS011;15123;-37.794;175.246;2023-05-29T11:38:56;21.05;;;4.88;;
27722;SDS011;15123;-37.794;175.246;2023-05-29T11:42:20;21.30;;;5.50;;
27722;SDS011;15123;-37.794;175.246;2023-05-29T11:45:44;15.10;;;2.80;;
27722;SDS011;15123;-37.794;175.246;2023-05-29T11:49:08;18.48;;;2.92;;
27722;SDS011;15123;-37.794;175.246;2023-05-29T11:52:32;16.95;;;3.30;;
27722;SDS011;15123;-37.794;175.246;2023-05-29T11:56:06;16.90;;;3.63;;
27722;SDS011;15123;-37.794;175.246;2023-05-29T11:59:31;14.32;;;3.40;;
27722;SDS011;15123;-37.794;175.246;2023-05-29T12:02:58;18.77;;;3.30;;
27722;SDS011;15123;-37.794;175.246;2023-05-29T12:10:09;15.75;;;2.75;;
27722;SDS011;15123;-37.794;175.246;2023-05-29T12:13:36;13.30;;;2.83;;
27722;SDS011;15123;-37.794;175.246;2023-05-29T12:16:54;13.73;;;2.72;;
27722;SDS011;15123;-37.794;175.246;2023-05-29T12:20:18;16.77;;;3.28;;
27722;SDS011;15123;-37.794;175.246;2023-05-29T12:23:42;17.10;;;2.50;;
27722;SDS011;15123;-37.794;175.246;2023-05-29T12:27:21;16.25;;;2.40;;
27722;SDS011;15123;-37.794;175.246;2023-05-29T12:30:45;20.42;;;2.85;;
27722;SDS011;15123;-37.794;175.246;2023-05-29T12:34:10;17.38;;;2.88;;
27722;SDS011;15123;-37.794;175.246;2023-05-29T12:37:35;13.50;;;2.72;;
27722;SDS011;15123;-37.794;175.246;2023-05-29T12:40:58;19.98;;;2.90;;
27722;SDS011;15123;-37.794;175.246;2023-05-29T12:44:22;14.00;;;2.78;;
27722;SDS011;15123;-37.794;175.246;2023-05-29T12:47:50;13.55;;;2.53;;
27722;SDS011;15123;-37.794;175.246;2023-05-29T12:51:24;13.48;;;2.45;;
27722;SDS011;15123;-37.794;175.246;2023-05-29T12:54:50;14.02;;;2.25;;
27722;SDS011;15123;-37.794;175.246;2023-05-29T12:58:15;15.57;;;2.72;;
27722;SDS011;15123;-37.794;175.246;2023-05-29T13:01:39;15.77;;;2.55;;
27722;SDS011;15123;-37.794;175.246;2023-05-29T13:05:03;16.88;;;2.70;;
27722;SDS011;15123;-37.794;175.246;2023-05-29T13:08:27;15.82;;;3.08;;
27722;SDS011;15123;-37.794;175.246;2023-05-29T13:11:50;18.10;;;2.75;;
27722;SDS011;15123;-37.794;175.246;2023-05-29T13:15:14;13.07;;;2.72;;
27722;SDS011;15123;-37.794;175.246;2023-05-29T13:18:39;15.32;;;2.58;;
27722;SDS011;15123;-37.794;175.246;2023-05-29T13:22:04;17.88;;;2.92;;
27722;SDS011;15123;-37.794;175.246;2023-05-29T13:25:29;16.27;;;3.08;;
27722;SDS011;15123;-37.794;175.246;2023-05-29T13:28:54;13.07;;;2.55;;
27722;SDS011;15123;-37.794;175.246;2023-05-29T13:32:18;17.80;;;3.47;;
27722;SDS011;15123;-37.794;175.246;2023-05-29T13:35:42;11.07;;;2.70;;
27722;SDS011;15123;-37.794;175.246;2023-05-29T13:39:05;7.95;;;1.83;;
27722;SDS011;15123;-37.794;175.246;2023-05-29T13:42:29;7.32;;;1.50;;
27722;SDS011;15123;-37.794;175.246;2023-05-29T13:45:52;7.78;;;1.35;;
27722;SDS011;15123;-37.794;175.246;2023-05-29T13:49:16;5.18;;;1.20;;
27722;SDS011;15123;-37.794;175.246;2023-05-29T13:52:40;6.40;;;1.20;;
27722;SDS011;15123;-37.794;175.246;2023-05-29T13:56:04;6.68;;;1.30;;
27722;SDS011;15123;-37.794;175.246;2023-05-29T13:59:32;5.40;;;1.13;;
27722;SDS011;15123;-37.794;175.246;2023-05-29T14:02:58;4.75;;;1.00;;
27722;SDS011;15123;-37.794;175.246;2023-05-29T14:06:23;6.13;;;1.25;;
27722;SDS011;15123;-37.794;175.246;2023-05-29T14:09:49;6.30;;;1.13;;
27722;SDS011;15123;-37.794;175.246;2023-05-29T14:13:13;6.30;;;1.00;;
27722;SDS011;15123;-37.794;175.246;2023-05-29T14:16:37;7.13;;;1.13;;
27722;SDS011;15123;-37.794;175.246;2023-05-29T14:20:02;9.32;;;1.40;;
27722;SDS011;15123;-37.794;175.246;2023-05-29T14:23:27;8.57;;;1.40;;
27722;SDS011;15123;-37.794;175.246;2023-05-29T14:26:51;7.32;;;1.10;;
27722;SDS011;15123;-37.794;175.246;2023-05-29T14:30:17;4.10;;;1.00;;
27722;SDS011;15123;-37.794;175.246;2023-05-29T14:33:41;8.38;;;1.40;;
27722;SDS011;15123;-37.794;175.246;2023-05-29T14:37:05;6.18;;;1.10;;
27722;SDS011;15123;-37.794;175.246;2023-05-29T14:40:30;6.00;;;1.05;;
27722;SDS011;15123;-37.794;175.246;2023-05-29T14:44:08;8.30;;;1.35;;
27722;SDS011;15123;-37.794;175.246;2023-05-29T14:47:32;7.43;;;1.33;;
27722;SDS011;15123;-37.794;175.246;2023-05-29T14:50:55;5.63;;;1.10;;
27722;SDS011;15123;-37.794;175.246;2023-05-29T14:54:20;8.27;;;1.80;;
27722;SDS011;15123;-37.794;175.246;2023-05-29T14:57:43;8.52;;;1.75;;
27722;SDS011;15123;-37.794;175.246;2023-05-29T15:01:07;7.32;;;1.67;;
27722;SDS011;15123;-37.794;175.246;2023-05-29T15:04:30;7.32;;;1.70;;
27722;SDS011;15123;-37.794;175.246;2023-05-29T15:07:55;6.57;;;1.25;;
27722;SDS011;15123;-37.794;175.246;2023-05-29T15:11:19;6.82;;;1.40;;
27722;SDS011;15123;-37.794;175.246;2023-05-29T15:14:43;8.35;;;1.27;;
27722;SDS011;15123;-37.794;175.246;2023-05-29T15:18:07;8.15;;;1.30;;
27722;SDS011;15123;-37.794;175.246;2023-05-29T15:21:31;5.68;;;1.30;;
27722;SDS011;15123;-37.794;175.246;2023-05-29T15:24:56;8.88;;;1.70;;
27722;SDS011;15123;-37.794;175.246;2023-05-29T15:28:20;5.50;;;1.00;;
27722;SDS011;15123;-37.794;175.246;2023-05-29T15:31:44;7.90;;;1.40;;
27722;SDS011;15123;-37.794;175.246;2023-05-29T15:35:11;8.70;;;1.40;;
27722;SDS011;15123;-37.794;175.246;2023-05-29T15:38:35;5.85;;;1.20;;
27722;SDS011;15123;-37.794;175.246;2023-05-29T15:41:59;8.18;;;1.40;;
27722;SDS011;15123;-37.794;175.246;2023-05-29T15:45:27;7.72;;;1.45;;
27722;SDS011;15123;-37.794;175.246;2023-05-29T15:48:52;7.20;;;1.25;;
27722;SDS011;15123;-37.794;175.246;2023-05-29T15:52:16;7.50;;;1.40;;
27722;SDS011;15123;-37.794;175.246;2023-05-29T15:56:00;7.63;;;1.50;;
27722;SDS011;15123;-37.794;175.246;2023-05-29T15:59:24;7.50;;;1.83;;
27722;SDS011;15123;-37.794;175.246;2023-05-29T16:02:48;8.50;;;1.60;;
27722;SDS011;15123;-37.794;175.246;2023-05-29T16:06:12;8.90;;;2.15;;
27722;SDS011;15123;-37.794;175.246;2023-05-29T16:09:36;9.30;;;1.75;;
27722;SDS011;15123;-37.794;175.246;2023-05-29T16:12:59;6.57;;;2.03;;
27722;SDS011;15123;-37.794;175.246;2023-05-29T16:16:23;8.15;;;1.80;;
27722;SDS011;15123;-37.794;175.246;2023-05-29T16:19:49;8.13;;;1.80;;
27722;SDS011;15123;-37.794;175.246;2023-05-29T16:23:14;7.18;;;1.73;;
27722;SDS011;15123;-37.794;175.246;2023-05-29T16:26:36;7.20;;;1.73;;
27722;SDS011;15123;-37.794;175.246;2023-05-29T16:30:00;7.53;;;1.60;;
27722;SDS011;15123;-37.794;175.246;2023-05-29T16:33:23;8.40;;;2.03;;
27722;SDS011;15123;-37.794;175.246;2023-05-29T16:36:47;6.95;;;1.92;;
27722;SDS011;15123;-37.794;175.246;2023-05-29T16:40:11;10.02;;;2.42;;
27722;SDS011;15123;-37.794;175.246;2023-05-29T16:43:41;10.73;;;2.63;;
27722;SDS011;15123;-37.794;175.246;2023-05-29T16:47:05;7.97;;;2.67;;
27722;SDS011;15123;-37.794;175.246;2023-05-29T16:50:30;7.85;;;2.60;;
27722;SDS011;15123;-37.794;175.246;2023-05-29T16:53:54;9.25;;;2.65;;
27722;SDS011;15123;-37.794;175.246;2023-05-29T16:57:18;10.75;;;2.83;;
27722;SDS011;15123;-37.794;175.246;2023-05-29T17:00:42;10.13;;;3.00;;
27722;SDS011;15123;-37.794;175.246;2023-05-29T17:04:06;10.27;;;2.80;;
27722;SDS011;15123;-37.794;175.246;2023-05-29T17:07:30;11.10;;;3.00;;
27722;SDS011;15123;-37.794;175.246;2023-05-29T17:10:55;8.70;;;2.70;;
27722;SDS011;15123;-37.794;175.246;2023-05-29T17:14:21;11.57;;;2.75;;
27722;SDS011;15123;-37.794;175.246;2023-05-29T17:17:45;14.43;;;3.50;;
27722;SDS011;15123;-37.794;175.246;2023-05-29T17:21:09;14.05;;;3.80;;
27722;SDS011;15123;-37.794;175.246;2023-05-29T17:24:33;13.30;;;3.50;;
27722;SDS011;15123;-37.794;175.246;2023-05-29T17:27:58;18.20;;;3.80;;
27722;SDS011;15123;-37.794;175.246;2023-05-29T17:31:25;15.10;;;3.85;;
27722;SDS011;15123;-37.794;175.246;2023-05-29T17:34:49;18.52;;;4.70;;
27722;SDS011;15123;-37.794;175.246;2023-05-29T17:38:13;17.75;;;4.72;;
27722;SDS011;15123;-37.794;175.246;2023-05-29T17:41:38;17.45;;;5.43;;
27722;SDS011;15123;-37.794;175.246;2023-05-29T17:45:01;12.95;;;4.38;;
27722;SDS011;15123;-37.794;175.246;2023-05-29T17:48:26;15.93;;;4.95;;
27722;SDS011;15123;-37.794;175.246;2023-05-29T17:51:50;13.48;;;4.93;;
27722;SDS011;15123;-37.794;175.246;2023-05-29T17:55:15;11.35;;;4.07;;
27722;SDS011;15123;-37.794;175.246;2023-05-29T17:58:39;16.20;;;5.28;;
27722;SDS011;15123;-37.794;175.246;2023-05-29T18:02:04;10.50;;;4.80;;
27722;SDS011;15123;-37.794;175.246;2023-05-29T18:05:30;11.38;;;4.82;;
27722;SDS011;15123;-37.794;175.246;2023-05-29T18:08:55;12.23;;;5.05;;
27722;SDS011;15123;-37.794;175.246;2023-05-29T18:12:19;13.55;;;4.95;;
27722;SDS011;15123;-37.794;175.246;2023-05-29T18:15:52;12.02;;;5.35;;
27722;SDS011;15123;-37.794;175.246;2023-05-29T18:19:17;15.20;;;5.85;;
27722;SDS011;15123;-37.794;175.246;2023-05-29T18:22:41;10.90;;;4.85;;
27722;SDS011;15123;-37.794;175.246;2023-05-29T18:26:05;12.55;;;5.05;;
27722;SDS011;15123;-37.794;175.246;2023-05-29T18:29:29;12.52;;;4.65;;
27722;SDS011;15123;-37.794;175.246;2023-05-29T18:32:53;14.60;;;4.90;;
27722;SDS011;15123;-37.794;175.246;2023-05-29T18:36:19;13.05;;;5.63;;
27722;SDS011;15123;-37.794;175.246;2023-05-29T18:39:44;11.02;;;4.88;;
27722;SDS011;15123;-37.794;175.246;2023-05-29T18:43:09;11.27;;;4.50;;
27722;SDS011;15123;-37.794;175.246;2023-05-29T18:46:34;11.63;;;4.72;;
27722;SDS011;15123;-37.794;175.246;2023-05-29T18:49:58;13.45;;;4.72;;
27722;SDS011;15123;-37.794;175.246;2023-05-29T18:53:22;15.50;;;5.32;;
27722;SDS011;15123;-37.794;175.246;2023-05-29T18:56:47;15.60;;;5.32;;
27722;SDS011;15123;-37.794;175.246;2023-05-29T19:00:11;15.55;;;4.88;;
27722;SDS011;15123;-37.794;175.246;2023-05-29T19:03:36;18.15;;;7.20;;
27722;SDS011;15123;-37.794;175.246;2023-05-29T19:07:01;14.27;;;5.72;;
27722;SDS011;15123;-37.794;175.246;2023-05-29T19:10:19;15.15;;;6.10;;
27722;SDS011;15123;-37.794;175.246;2023-05-29T19:13:43;14.90;;;4.97;;
27722;SDS011;15123;-37.794;175.246;2023-05-29T19:17:08;13.95;;;5.43;;
27722;SDS011;15123;-37.794;175.246;2023-05-29T19:20:33;11.82;;;5.03;;
27722;SDS011;15123;-37.794;175.246;2023-05-29T19:23:57;11.48;;;5.38;;
27722;SDS011;15123;-37.794;175.246;2023-05-29T19:27:15;12.43;;;5.10;;
27722;SDS011;15123;-37.794;175.246;2023-05-29T19:30:32;10.73;;;4.82;;
27722;SDS011;15123;-37.794;175.246;2023-05-29T19:33:56;14.25;;;5.55;;
27722;SDS011;15123;-37.794;175.246;2023-05-29T19:37:21;12.57;;;5.15;;
27722;SDS011;15123;-37.794;175.246;2023-05-29T19:40:46;12.65;;;5.63;;
27722;SDS011;15123;-37.794;175.246;2023-05-29T19:44:11;11.85;;;5.00;;
27722;SDS011;15123;-37.794;175.246;2023-05-29T19:47:36;12.02;;;4.93;;
27722;SDS011;15123;-37.794;175.246;2023-05-29T19:51:00;12.13;;;5.20;;